createdAt,value
2023-04-30T00:01:24.298Z,5.50
2023-04-30T00:04:28.355Z,5.57
2023-04-30T00:07:32.239Z,5.30
2023-04-30T00:10:35.628Z,4.97
2023-04-30T00:13:39.246Z,4.88
2023-04-30T00:16:42.595Z,5.40
2023-04-30T00:19:46.165Z,5.57
2023-04-30T00:22:53.104Z,5.50
2023-04-30T00:25:56.412Z,5.07
2023-04-30T00:29:00.227Z,5.88
2023-04-30T00:32:03.699Z,5.78
2023-04-30T00:35:07.368Z,5.18
2023-04-30T00:38:10.627Z,5.50
2023-04-30T00:41:15.631Z,5.73
2023-04-30T00:44:18.918Z,5.93
2023-04-30T00:47:22.382Z,5.78
2023-04-30T00:50:26.522Z,5.28
2023-04-30T00:53:29.864Z,5.63
2023-04-30T00:56:33.368Z,5.55
2023-04-30T00:59:37.155Z,6.00
2023-04-30T01:02:41.434Z,5.88
2023-04-30T01:05:44.830Z,5.97
2023-04-30T01:08:48.738Z,5.60
2023-04-30T01:12:10.821Z,5.55
2023-04-30T01:15:56.655Z,6.20
2023-04-30T01:19:11.882Z,5.82
2023-04-30T01:22:52.567Z,6.53
2023-04-30T01:26:12.322Z,6.20
2023-04-30T01:29:17.290Z,6.65
2023-04-30T01:32:20.574Z,6.70
2023-04-30T01:35:47.516Z,6.50
2023-04-30T01:39:18.356Z,6.35
2023-04-30T01:42:30.875Z,6.17
2023-04-30T01:45:45.662Z,6.38
2023-04-30T01:49:03.745Z,6.55
2023-04-30T01:52:20.843Z,5.95
2023-04-30T01:55:32.810Z,6.65
2023-04-30T01:58:37.852Z,6.63
2023-04-30T02:01:41.369Z,5.93
2023-04-30T02:04:44.774Z,6.05
2023-04-30T02:07:50.502Z,6.45
2023-04-30T02:10:53.816Z,6.32
2023-04-30T02:13:57.351Z,6.50
2023-04-30T02:17:00.728Z,6.00
2023-04-30T02:20:04.725Z,6.32
2023-04-30T02:23:09.861Z,6.80
2023-04-30T02:26:13.113Z,5.85
2023-04-30T02:29:17.466Z,6.63
2023-04-30T02:32:21.102Z,6.63
2023-04-30T02:35:24.431Z,6.40
2023-04-30T02:38:27.886Z,6.40
2023-04-30T02:41:31.627Z,6.43
2023-04-30T02:44:35.674Z,6.77
2023-04-30T02:47:39.282Z,7.00
2023-04-30T02:50:43.273Z,7.75
2023-04-30T02:53:46.470Z,7.00
2023-04-30T02:56:49.752Z,6.85
2023-04-30T02:59:53.338Z,7.30
2023-04-30T03:02:57.137Z,6.85
2023-04-30T03:06:00.628Z,6.93
2023-04-30T03:09:04.102Z,7.32
2023-04-30T03:12:07.515Z,7.70
2023-04-30T03:15:10.985Z,8.90
2023-04-30T03:18:14.306Z,8.45
2023-04-30T03:21:17.529Z,8.10
2023-04-30T03:24:20.867Z,8.50
2023-04-30T03:27:24.104Z,8.48
2023-04-30T03:30:27.400Z,8.30
2023-04-30T03:33:30.967Z,7.45
2023-04-30T03:36:34.935Z,7.68
2023-04-30T03:39:38.536Z,7.55
2023-04-30T03:42:41.720Z,7.72
2023-04-30T03:45:45.876Z,8.17
2023-04-30T03:48:49.171Z,8.93
2023-04-30T03:51:52.750Z,8.63
2023-04-30T03:54:55.975Z,7.82
2023-04-30T03:58:04.248Z,7.85
2023-04-30T04:01:07.914Z,7.70
2023-04-30T04:04:11.674Z,7.85
2023-04-30T04:07:15.241Z,7.85
2023-04-30T04:10:18.568Z,7.80
2023-04-30T04:13:21.732Z,8.18
2023-04-30T04:16:24.986Z,8.63
2023-04-30T04:19:28.754Z,8.35
2023-04-30T04:22:32.605Z,7.80
2023-04-30T04:25:35.977Z,7.80
2023-04-30T04:28:39.378Z,7.95
2023-04-30T04:31:43.561Z,7.70
2023-04-30T04:34:57.646Z,7.15
2023-04-30T04:38:01.462Z,8.20
2023-04-30T04:41:05.085Z,7.65
2023-04-30T04:44:08.522Z,8.18
2023-04-30T04:47:12.887Z,8.47
2023-04-30T04:50:16.365Z,8.07
2023-04-30T04:53:19.668Z,8.57
2023-04-30T04:56:22.852Z,8.68
2023-04-30T04:59:26.781Z,8.23
2023-04-30T05:02:30.198Z,8.17
2023-04-30T05:05:33.391Z,7.93
2023-04-30T05:08:36.556Z,7.88
2023-04-30T05:11:41.674Z,7.68
2023-04-30T05:14:45.346Z,8.18
2023-04-30T05:17:48.618Z,7.83
2023-04-30T05:20:52.048Z,7.40
2023-04-30T05:23:56.015Z,8.25
2023-04-30T05:26:59.244Z,6.97
2023-04-30T05:30:02.761Z,7.20
2023-04-30T05:33:07.207Z,6.57
2023-04-30T05:36:11.438Z,6.50
2023-04-30T05:39:14.877Z,7.30
2023-04-30T05:42:18.068Z,7.28
2023-04-30T05:45:21.549Z,7.22
2023-04-30T05:48:24.848Z,7.57
2023-04-30T05:51:28.577Z,7.97
2023-04-30T05:54:32.588Z,7.82
2023-04-30T05:57:35.796Z,8.50
2023-04-30T06:00:39.589Z,8.07
2023-04-30T06:03:43.181Z,8.00
2023-04-30T06:06:46.505Z,7.70
2023-04-30T06:09:49.838Z,7.20
2023-04-30T06:12:53.240Z,7.45
2023-04-30T06:15:56.478Z,7.55
2023-04-30T06:18:59.612Z,7.57
2023-04-30T06:22:06.319Z,7.30
2023-04-30T06:25:10.067Z,7.55
2023-04-30T06:28:13.282Z,7.43
2023-04-30T06:31:16.718Z,7.00
2023-04-30T06:34:21.111Z,6.60
2023-04-30T06:37:24.525Z,6.73
2023-04-30T06:40:27.784Z,6.18
2023-04-30T06:43:31.265Z,6.93
2023-04-30T06:46:35.025Z,6.57
2023-04-30T06:49:38.303Z,6.20
2023-04-30T06:52:41.910Z,6.30
2023-04-30T06:55:49.198Z,6.47
2023-04-30T06:58:52.411Z,6.13
2023-04-30T07:01:55.655Z,6.10
2023-04-30T07:04:59.692Z,6.03
2023-04-30T07:08:03.852Z,6.30
2023-04-30T07:11:07.143Z,5.43
2023-04-30T07:14:10.626Z,4.80
2023-04-30T07:17:13.860Z,5.30
2023-04-30T07:20:17.245Z,5.27
2023-04-30T07:23:21.006Z,5.10
2023-04-30T07:26:26.483Z,4.93
2023-04-30T07:29:30.047Z,4.50
2023-04-30T07:32:34.452Z,4.47
2023-04-30T07:35:37.858Z,4.90
2023-04-30T07:38:41.076Z,4.80
2023-04-30T07:41:44.300Z,4.80
2023-04-30T07:44:48.947Z,4.72
2023-04-30T07:47:52.199Z,4.10
2023-04-30T07:50:56.811Z,3.77
2023-04-30T07:54:00.480Z,4.50
2023-04-30T07:57:03.854Z,4.00
2023-04-30T08:00:08.030Z,3.60
2023-04-30T08:03:15.850Z,3.85
2023-04-30T08:06:19.232Z,3.60
2023-04-30T08:09:23.015Z,3.97
2023-04-30T08:12:26.445Z,4.10
2023-04-30T08:15:30.691Z,3.85
2023-04-30T08:18:34.104Z,3.95
2023-04-30T08:21:37.834Z,3.40
2023-04-30T08:24:41.102Z,3.60
2023-04-30T08:27:44.303Z,3.80
2023-04-30T08:30:47.562Z,3.30
2023-04-30T08:33:51.197Z,3.40
2023-04-30T08:36:54.367Z,3.10
2023-04-30T08:39:58.320Z,3.60
2023-04-30T08:43:07.062Z,3.90
2023-04-30T08:46:13.161Z,3.28
2023-04-30T08:49:17.037Z,3.35
2023-04-30T08:52:21.623Z,3.10
2023-04-30T08:55:26.525Z,3.30
2023-04-30T08:58:29.707Z,2.47
2023-04-30T09:01:32.744Z,2.63
2023-04-30T09:04:36.207Z,2.67
2023-04-30T09:10:53.173Z,2.47
2023-04-30T09:13:57.449Z,2.92
2023-04-30T09:17:00.578Z,2.83
2023-04-30T09:20:11.179Z,3.20
2023-04-30T09:23:14.509Z,3.30
2023-04-30T09:26:26.588Z,3.03
2023-04-30T09:29:38.712Z,2.88
2023-04-30T09:32:57.364Z,2.97
2023-04-30T09:36:09.870Z,3.67
2023-04-30T09:39:17.637Z,4.10
2023-04-30T09:42:21.279Z,3.17
2023-04-30T09:45:24.476Z,3.92
2023-04-30T09:48:28.517Z,3.53
2023-04-30T09:51:32.088Z,4.10
2023-04-30T09:54:37.009Z,2.77
2023-04-30T09:57:40.473Z,3.60
2023-04-30T10:00:45.452Z,3.58
2023-04-30T10:03:50.272Z,4.07
2023-04-30T10:06:57.676Z,3.55
2023-04-30T10:10:19.882Z,3.70
2023-04-30T10:13:26.768Z,3.30
2023-04-30T10:16:50.895Z,3.60
2023-04-30T10:19:57.821Z,3.55
2023-04-30T10:23:01.391Z,3.50
2023-04-30T10:26:04.928Z,3.03
2023-04-30T10:29:09.162Z,3.30
2023-04-30T10:32:14.190Z,2.88
2023-04-30T10:35:28.706Z,2.83
2023-04-30T10:38:33.340Z,3.05
2023-04-30T10:41:36.677Z,3.30
2023-04-30T10:44:40.499Z,3.33
2023-04-30T10:47:48.138Z,3.20
2023-04-30T10:50:52.395Z,2.78
2023-04-30T10:53:56.851Z,3.47
2023-04-30T10:57:17.866Z,4.20
2023-04-30T11:00:25.138Z,3.73
2023-04-30T11:03:32.888Z,3.92
2023-04-30T11:07:07.331Z,3.78
2023-04-30T11:10:10.649Z,3.45
2023-04-30T11:13:14.954Z,3.60
2023-04-30T11:16:20.323Z,3.67
2023-04-30T11:19:25.472Z,3.75
2023-04-30T11:22:36.325Z,3.70
2023-04-30T11:25:46.585Z,3.45
2023-04-30T11:28:54.541Z,3.30
2023-04-30T11:32:00.519Z,3.57
2023-04-30T11:35:06.223Z,4.07
2023-04-30T11:38:12.446Z,3.90
2023-04-30T11:41:17.363Z,3.60
2023-04-30T11:44:29.541Z,3.60
2023-04-30T11:47:44.015Z,3.97
2023-04-30T11:50:47.523Z,4.63
2023-04-30T11:53:53.090Z,4.53
2023-04-30T11:57:02.270Z,3.90
2023-04-30T12:00:16.647Z,2.37
2023-04-30T12:03:20.205Z,3.17
2023-04-30T12:06:28.859Z,3.78
2023-04-30T12:09:32.195Z,4.03
2023-04-30T12:12:38.073Z,3.95
2023-04-30T12:15:41.710Z,4.03
2023-04-30T12:18:45.390Z,3.10
2023-04-30T12:21:49.784Z,4.35
2023-04-30T12:24:54.728Z,2.63
2023-04-30T12:28:00.038Z,2.38
2023-04-30T12:31:06.039Z,1.97
2023-04-30T12:34:12.319Z,1.50
2023-04-30T12:37:18.436Z,1.50
2023-04-30T12:40:28.322Z,1.42
2023-04-30T12:43:31.509Z,1.60
2023-04-30T12:46:34.726Z,1.70
2023-04-30T12:49:38.076Z,2.10
2023-04-30T12:52:46.158Z,1.88
2023-04-30T12:56:16.401Z,1.50
2023-04-30T12:59:19.766Z,1.60
2023-04-30T13:02:32.081Z,2.17
2023-04-30T13:05:35.650Z,1.60
2023-04-30T13:08:56.272Z,1.90
2023-04-30T13:12:01.267Z,2.40
2023-04-30T13:15:04.827Z,3.65
2023-04-30T13:18:12.068Z,4.90
2023-04-30T13:21:15.437Z,5.63
2023-04-30T13:24:18.984Z,5.55
2023-04-30T13:27:22.478Z,3.72
2023-04-30T13:30:26.281Z,4.75
2023-04-30T13:33:29.523Z,5.30
2023-04-30T13:36:33.186Z,4.95
2023-04-30T13:39:36.527Z,5.10
2023-04-30T13:42:41.716Z,5.20
2023-04-30T13:45:44.946Z,4.30
2023-04-30T13:48:50.099Z,4.13
2023-04-30T13:51:53.289Z,5.20
2023-04-30T13:55:00.259Z,5.20
2023-04-30T13:58:03.816Z,5.40
2023-04-30T14:01:07.299Z,4.55
2023-04-30T14:04:10.916Z,4.60
2023-04-30T14:07:14.589Z,5.00
2023-04-30T14:10:17.869Z,4.22
2023-04-30T14:13:21.343Z,4.10
2023-04-30T14:16:25.569Z,4.03
2023-04-30T14:19:28.905Z,2.37
2023-04-30T14:22:34.579Z,2.00
2023-04-30T14:25:38.260Z,2.40
2023-04-30T14:28:41.499Z,2.00
2023-04-30T14:31:46.684Z,1.50
2023-04-30T14:34:50.373Z,1.40
2023-04-30T14:37:53.575Z,1.67
2023-04-30T14:41:01.865Z,1.42
2023-04-30T14:44:05.727Z,1.50
2023-04-30T14:47:08.971Z,1.40
2023-04-30T14:50:12.357Z,1.70
2023-04-30T14:53:15.615Z,1.40
2023-04-30T14:56:19.234Z,1.80
2023-04-30T14:59:22.536Z,2.10
2023-04-30T15:02:25.906Z,2.22
2023-04-30T15:05:30.452Z,2.50
2023-04-30T15:08:33.870Z,2.40
2023-04-30T15:11:37.101Z,2.40
2023-04-30T15:14:41.383Z,2.42
2023-04-30T15:17:44.690Z,2.80
2023-04-30T15:20:48.918Z,2.37
2023-04-30T15:23:52.183Z,2.50
2023-04-30T15:26:55.438Z,2.80
2023-04-30T15:29:58.605Z,2.67
2023-04-30T15:33:02.102Z,1.77
2023-04-30T15:36:05.634Z,1.63
2023-04-30T15:39:08.930Z,1.97
2023-04-30T15:42:12.185Z,1.65
2023-04-30T15:45:15.486Z,1.85
2023-04-30T15:48:18.783Z,1.85
2023-04-30T15:51:22.491Z,1.90
2023-04-30T15:54:25.758Z,1.43
2023-04-30T15:57:32.008Z,1.77
2023-04-30T16:00:35.618Z,1.85
2023-04-30T16:03:39.160Z,1.50
2023-04-30T16:06:42.732Z,1.30
2023-04-30T16:09:49.050Z,1.40
2023-04-30T16:12:52.491Z,1.40
2023-04-30T16:15:56.046Z,1.08
2023-04-30T16:18:59.543Z,1.60
2023-04-30T16:22:03.141Z,1.30
2023-04-30T16:25:08.384Z,1.40
2023-04-30T16:28:11.781Z,1.60
2023-04-30T16:31:16.990Z,1.77
2023-04-30T16:34:20.888Z,1.85
2023-04-30T16:37:24.185Z,2.00
2023-04-30T16:40:27.646Z,1.70
2023-04-30T16:43:31.069Z,1.52
2023-04-30T16:46:35.380Z,2.15
2023-04-30T16:49:39.747Z,1.98
2023-04-30T16:52:43.078Z,2.40
2023-04-30T16:55:46.458Z,1.93
2023-04-30T16:58:49.979Z,2.25
2023-04-30T17:01:56.480Z,1.92
2023-04-30T17:04:59.810Z,2.13
2023-04-30T17:08:03.315Z,2.23
2023-04-30T17:11:07.302Z,2.50
2023-04-30T17:14:11.470Z,2.17
2023-04-30T17:17:14.767Z,2.13
2023-04-30T17:20:18.210Z,2.10
2023-04-30T17:23:21.819Z,2.13
2023-04-30T17:26:25.730Z,2.20
2023-04-30T17:29:28.977Z,2.08
2023-04-30T17:32:32.293Z,2.00
2023-04-30T17:35:35.575Z,2.10
2023-04-30T17:38:39.365Z,2.63
2023-04-30T17:41:43.043Z,1.90
2023-04-30T17:44:46.791Z,2.10
2023-04-30T17:47:50.134Z,1.88
2023-04-30T17:50:54.213Z,1.90
2023-04-30T17:53:59.475Z,2.13
2023-04-30T17:57:03.087Z,2.30
2023-04-30T18:00:07.499Z,2.17
2023-04-30T18:03:16.661Z,2.10
2023-04-30T18:06:21.481Z,2.17
2023-04-30T18:09:24.835Z,2.33
2023-04-30T18:12:28.272Z,2.10
2023-04-30T18:15:31.853Z,2.10
2023-04-30T18:18:35.353Z,1.95
2023-04-30T18:21:38.719Z,2.10
2023-04-30T18:24:42.517Z,2.47
2023-04-30T18:27:46.094Z,2.17
2023-04-30T18:30:49.869Z,2.08
2023-04-30T18:33:53.168Z,2.38
2023-04-30T18:36:57.166Z,2.40
2023-04-30T18:40:00.599Z,2.47
2023-04-30T18:43:03.830Z,2.77
2023-04-30T18:46:07.662Z,2.40
2023-04-30T18:49:11.189Z,2.50
2023-04-30T18:52:14.875Z,2.78
2023-04-30T18:55:18.824Z,2.47
2023-04-30T18:58:22.507Z,2.77
2023-04-30T19:01:27.470Z,3.05
2023-04-30T19:04:30.930Z,2.63
2023-04-30T19:07:34.409Z,2.55
2023-04-30T19:10:38.026Z,2.87
2023-04-30T19:13:41.714Z,2.53
2023-04-30T19:16:46.224Z,2.17
2023-04-30T19:19:50.336Z,2.45
2023-04-30T19:22:54.158Z,2.22
2023-04-30T19:25:58.867Z,1.90
2023-04-30T19:29:03.464Z,2.20
2023-04-30T19:32:07.421Z,2.10
2023-04-30T19:35:11.572Z,2.10
2023-04-30T19:38:15.826Z,2.10
2023-04-30T19:41:19.173Z,2.03
2023-04-30T19:44:22.717Z,1.60
2023-04-30T19:47:26.426Z,2.05
2023-04-30T19:50:30.069Z,1.75
2023-04-30T19:53:33.697Z,2.10
2023-04-30T19:56:37.215Z,1.67
2023-04-30T19:59:41.809Z,1.80
2023-04-30T20:02:45.565Z,1.80
2023-04-30T20:05:48.982Z,2.10
2023-04-30T20:08:52.932Z,1.60
2023-04-30T20:11:56.427Z,1.90
2023-04-30T20:14:59.673Z,1.87
2023-04-30T20:18:03.612Z,2.45
2023-04-30T20:21:07.341Z,2.00
2023-04-30T20:24:11.860Z,2.40
2023-04-30T20:27:15.187Z,2.70
2023-04-30T20:30:18.897Z,2.60
2023-04-30T20:33:22.843Z,2.70
2023-04-30T20:36:26.411Z,3.10
2023-04-30T20:39:30.154Z,2.83
2023-04-30T20:42:34.040Z,3.00
2023-04-30T20:45:37.619Z,2.83
2023-04-30T20:48:41.013Z,3.25
2023-04-30T20:51:44.460Z,3.35
2023-04-30T20:54:48.445Z,3.85
2023-04-30T20:57:51.723Z,3.80
2023-04-30T21:00:55.346Z,3.45
2023-04-30T21:04:00.156Z,3.45
2023-04-30T21:07:03.383Z,3.42
2023-04-30T21:10:08.353Z,3.60
2023-04-30T21:13:12.923Z,2.83
2023-04-30T21:16:16.206Z,2.93
2023-04-30T21:19:19.484Z,2.85
2023-04-30T21:22:24.056Z,3.00
2023-04-30T21:25:27.401Z,3.00
2023-04-30T21:28:31.432Z,2.57
2023-04-30T21:31:37.229Z,2.78
2023-04-30T21:34:40.567Z,2.75
2023-04-30T21:37:43.781Z,2.70
2023-04-30T21:40:47.062Z,2.92
2023-04-30T21:43:50.677Z,2.63
2023-04-30T21:46:53.991Z,2.63
2023-04-30T21:49:58.662Z,2.83
2023-04-30T21:53:03.295Z,2.80
2023-04-30T21:56:10.894Z,2.60
2023-04-30T21:59:14.178Z,2.67
2023-04-30T22:02:23.972Z,2.75
2023-04-30T22:05:27.998Z,2.92
2023-04-30T22:08:31.433Z,2.58
2023-04-30T22:11:34.828Z,2.60
2023-04-30T22:14:38.323Z,3.10
2023-04-30T22:17:41.674Z,2.80
2023-04-30T22:20:45.032Z,3.03
2023-04-30T22:23:48.829Z,2.58
2023-04-30T22:26:54.772Z,2.85
2023-04-30T22:29:58.567Z,3.10
2023-04-30T22:33:02.385Z,3.08
2023-04-30T22:36:06.319Z,3.10
2023-04-30T22:39:10.022Z,2.97
2023-04-30T22:42:14.133Z,3.10
2023-04-30T22:45:18.057Z,3.10
2023-04-30T22:48:22.088Z,2.95
2023-04-30T22:51:26.505Z,2.95
2023-04-30T22:54:30.198Z,3.30
2023-04-30T22:57:33.389Z,3.17
2023-04-30T23:00:37.182Z,3.20
2023-04-30T23:03:40.850Z,2.92
2023-04-30T23:06:45.031Z,3.25
2023-04-30T23:09:48.433Z,2.72
2023-04-30T23:12:55.445Z,3.20
2023-04-30T23:15:59.428Z,3.40
2023-04-30T23:19:02.879Z,3.28
2023-04-30T23:22:06.289Z,3.30
2023-04-30T23:25:10.035Z,3.13
2023-04-30T23:28:13.501Z,3.30
2023-04-30T23:31:18.058Z,3.50
2023-04-30T23:34:21.855Z,3.13
2023-04-30T23:37:25.237Z,3.40
2023-04-30T23:40:29.193Z,3.80
2023-04-30T23:43:33.060Z,3.30
2023-04-30T23:46:36.481Z,3.60
2023-04-30T23:49:39.915Z,3.40
2023-04-30T23:52:44.222Z,3.90
2023-04-30T23:55:47.531Z,4.07
2023-04-30T23:58:50.835Z,3.65
